Time;durP1;ratioP1;P1;durP2;ratioP2;P2;SDS_P1;SDS_P2;PMS_P1;PMS_P2;Temp;Humidity;BMP_temperature;BMP_pressure;BME280_temperature;BME280_humidity;BME280_pressure;Samples;Min_cycle;Max_cycle;Signal;HPM_P1;HPM_P2
2022/03/27 00:01:47;;;;;;;31.42;13.43;;;7.80;1.00;;;;;;7364974;19;20022;-62
2022/03/27 00:04:22;;;;;;;31.85;14.30;;;7.90;1.00;;;;;;7377029;19;20384;-60
2022/03/27 00:06:52;;;;;;;25.65;13.73;;;8.00;1.00;;;;;;7360923;19;20003;-62
2022/03/27 00:09:21;;;;;;;28.48;13.43;;;8.00;1.00;;;;;;7362523;19;20006;-62
2022/03/27 00:11:52;;;;;;;31.30;14.52;;;8.00;1.00;;;;;;7364944;19;20010;-62
2022/03/27 00:14:22;;;;;;;32.95;13.63;;;7.90;1.00;;;;;;7355801;19;20011;-61
2022/03/27 00:16:51;;;;;;;31.55;14.05;;;7.90;1.00;;;;;;7360312;19;20010;-62
2022/03/27 00:19:24;;;;;;;33.10;14.65;;;7.80;1.00;;;;;;7385327;19;20017;-62
2022/03/27 00:21:54;;;;;;;31.33;14.45;;;7.70;1.00;;;;;;7364301;19;19999;-62
2022/03/27 00:24:24;;;;;;;28.17;14.10;;;7.70;1.00;;;;;;7354493;19;20027;-62
2022/03/27 00:26:55;;;;;;;26.27;14.23;;;7.60;1.00;;;;;;7360451;19;20017;-61
2022/03/27 00:29:25;;;;;;;36.08;14.60;;;7.50;1.00;;;;;;7362117;19;20013;-62
2022/03/27 00:31:55;;;;;;;26.77;13.88;;;7.40;1.00;;;;;;7366083;19;20078;-61
2022/03/27 00:34:27;;;;;;;32.55;14.48;;;7.40;1.00;;;;;;7390805;19;20462;-61
2022/03/27 00:36:57;;;;;;;27.85;14.07;;;7.40;1.00;;;;;;7374719;19;20017;-61
2022/03/27 00:39:27;;;;;;;35.17;15.00;;;7.40;1.00;;;;;;7373111;19;20440;-61
2022/03/27 00:41:57;;;;;;;30.30;14.88;;;7.30;1.00;;;;;;7378205;19;20015;-61
2022/03/27 00:44:27;;;;;;;30.90;13.60;;;7.30;1.00;;;;;;7370311;19;20538;-62
2022/03/27 00:46:58;;;;;;;33.25;14.50;;;7.20;1.00;;;;;;7373327;19;20004;-62
2022/03/27 00:49:31;;;;;;;33.00;14.35;;;7.20;1.00;;;;;;7397830;19;20031;-62
2022/03/27 00:52:00;;;;;;;29.48;14.55;;;7.20;1.00;;;;;;7376853;19;20013;-62
2022/03/27 00:54:30;;;;;;;30.92;14.77;;;7.10;1.00;;;;;;7368706;19;20082;-60
2022/03/27 00:57:00;;;;;;;34.90;14.15;;;7.10;1.00;;;;;;7374329;19;20010;-61
2022/03/27 00:59:30;;;;;;;30.77;14.43;;;7.00;1.00;;;;;;7373152;19;20030;-61
2022/03/27 01:02:01;;;;;;;28.27;14.27;;;6.90;1.00;;;;;;7375434;19;20035;-60
2022/03/27 01:04:34;;;;;;;31.05;14.35;;;6.80;1.00;;;;;;7388144;19;20030;-61
2022/03/27 01:07:05;;;;;;;31.13;15.32;;;6.80;1.00;;;;;;7373479;19;20018;-62
2022/03/27 01:09:38;;;;;;;33.28;15.32;;;6.70;1.00;;;;;;7377144;19;20428;-61
2022/03/27 01:12:16;;;;;;;29.20;14.80;;;6.70;1.00;;;;;;7376683;19;20030;-61
2022/03/27 01:14:47;;;;;;;42.50;18.55;;;6.70;1.00;;;;;;7369084;19;20094;-62
2022/03/27 01:17:18;;;;;;;33.85;16.90;;;6.60;1.00;;;;;;7374057;19;20007;-61
2022/03/27 01:19:52;;;;;;;33.65;15.90;;;6.60;1.00;;;;;;7376542;19;20030;-63
2022/03/27 01:22:26;;;;;;;33.45;17.20;;;6.60;1.00;;;;;;7397959;19;20013;-62
2022/03/27 01:24:56;;;;;;;32.92;15.45;;;6.60;1.00;;;;;;7367470;19;20015;-62
2022/03/27 01:27:26;;;;;;;39.63;18.30;;;6.70;1.00;;;;;;7372074;19;20007;-62
2022/03/27 01:29:56;;;;;;;41.75;17.42;;;6.50;1.00;;;;;;7372931;19;20127;-62
2022/03/27 01:32:26;;;;;;;35.67;16.73;;;6.50;1.00;;;;;;7376651;19;20016;-62
2022/03/27 01:34:56;;;;;;;37.03;19.05;;;6.50;1.00;;;;;;7367748;19;20020;-62
2022/03/27 01:37:29;;;;;;;34.78;16.98;;;6.40;1.00;;;;;;7394646;19;20122;-61
2022/03/27 01:39:59;;;;;;;33.38;15.77;;;6.40;1.00;;;;;;7376069;19;20077;-61
2022/03/27 01:42:28;;;;;;;37.78;16.33;;;6.30;1.00;;;;;;7375034;19;20009;-62
2022/03/27 01:44:58;;;;;;;33.65;15.77;;;6.40;1.00;;;;;;7359713;19;20014;-62
2022/03/27 01:47:28;;;;;;;34.28;15.10;;;6.30;1.00;;;;;;7363640;19;20113;-62
2022/03/27 01:49:58;;;;;;;31.60;15.10;;;6.20;1.00;;;;;;7367083;19;20135;-61
2022/03/27 01:52:31;;;;;;;37.35;16.33;;;6.20;1.00;;;;;;7390650;19;20014;-62
2022/03/27 01:55:01;;;;;;;32.65;15.70;;;6.30;1.00;;;;;;7359779;19;20593;-62
2022/03/27 01:57:31;;;;;;;35.30;16.33;;;6.30;1.00;;;;;;7362698;19;20011;-62
2022/03/27 02:00:00;;;;;;;36.53;16.13;;;6.20;1.00;;;;;;7366349;19;20018;-63
2022/03/27 02:02:30;;;;;;;29.25;15.35;;;6.20;1.00;;;;;;7368575;19;20061;-62
2022/03/27 02:05:01;;;;;;;36.70;16.17;;;6.20;1.00;;;;;;7359193;19;20167;-62
2022/03/27 02:07:37;;;;;;;29.85;15.52;;;6.10;1.00;;;;;;7386335;19;20485;-62
2022/03/27 02:10:08;;;;;;;32.08;15.70;;;6.00;1.00;;;;;;7366888;19;20011;-62
2022/03/27 02:12:39;;;;;;;31.70;15.32;;;6.10;1.00;;;;;;7367535;19;20018;-62
2022/03/27 02:15:10;;;;;;;32.50;15.90;;;6.10;1.00;;;;;;7357355;19;20018;-62
2022/03/27 02:17:41;;;;;;;34.25;16.48;;;6.30;1.00;;;;;;7365149;19;20010;-62
2022/03/27 02:20:12;;;;;;;36.03;16.50;;;6.20;1.00;;;;;;7367838;19;20013;-61
2022/03/27 02:22:45;;;;;;;32.65;16.63;;;6.20;1.00;;;;;;7367644;19;20011;-62
2022/03/27 02:25:16;;;;;;;37.40;16.90;;;6.10;1.00;;;;;;7381912;19;20014;-59
2022/03/27 02:27:46;;;;;;;33.17;16.05;;;5.90;1.00;;;;;;7363906;19;20012;-61
2022/03/27 02:30:17;;;;;;;29.08;15.75;;;5.90;1.00;;;;;;7366514;19;20010;-61
2022/03/27 02:32:47;;;;;;;32.47;15.57;;;5.90;1.00;;;;;;7367858;19;20036;-61
2022/03/27 02:35:18;;;;;;;39.08;15.75;;;5.80;1.00;;;;;;7358888;19;20018;-60
2022/03/27 02:37:51;;;;;;;30.55;15.60;;;5.80;1.00;;;;;;7363457;19;20478;-60
2022/03/27 02:40:20;;;;;;;34.55;15.13;;;5.80;1.00;;;;;;7389586;19;20019;-61
2022/03/27 02:42:50;;;;;;;35.47;16.02;;;5.80;1.00;;;;;;7367149;19;20010;-61
2022/03/27 02:45:20;;;;;;;33.03;15.85;;;5.80;1.00;;;;;;7360380;19;20090;-61
2022/03/27 02:47:50;;;;;;;34.40;17.17;;;5.90;1.00;;;;;;7363269;19;20015;-61
2022/03/27 02:50:20;;;;;;;28.38;16.17;;;5.80;1.00;;;;;;7365179;19;20014;-61
2022/03/27 02:52:53;;;;;;;34.00;16.45;;;5.80;1.00;;;;;;7366333;19;20082;-61
2022/03/27 02:55:24;;;;;;;32.53;16.00;;;5.80;1.00;;;;;;7377417;19;20007;-61
2022/03/27 02:57:55;;;;;;;34.00;16.77;;;5.80;1.00;;;;;;7362894;19;20090;-61
2022/03/27 03:00:25;;;;;;;30.25;17.08;;;5.70;1.00;;;;;;7366746;19;20480;-61
2022/03/27 03:02:56;;;;;;;35.08;16.80;;;5.70;1.00;;;;;;7365943;19;20455;-61
2022/03/27 03:05:27;;;;;;;35.88;16.77;;;5.60;1.00;;;;;;7358902;19;20082;-61
2022/03/27 03:08:01;;;;;;;34.13;17.38;;;5.50;1.00;;;;;;7363085;19;20014;-61
2022/03/27 03:10:31;;;;;;;32.97;16.77;;;5.50;1.00;;;;;;7386615;19;20018;-62
2022/03/27 03:13:01;;;;;;;34.95;16.95;;;5.50;1.00;;;;;;7366865;19;20006;-61
2022/03/27 03:15:32;;;;;;;32.45;16.30;;;5.40;1.00;;;;;;7359654;19;20034;-61
2022/03/27 03:18:02;;;;;;;37.75;16.15;;;5.40;1.00;;;;;;7362067;19;20011;-61
2022/03/27 03:20:43;;;;;;;35.15;16.20;;;5.30;1.00;;;;;;7364430;19;20006;-61
2022/03/27 03:23:16;;;;;;;30.33;15.65;;;5.30;1.00;;;;;;7365414;19;20022;-61
2022/03/27 03:25:46;;;;;;;30.88;16.02;;;5.30;1.00;;;;;;7358201;19;20015;-61
2022/03/27 03:28:37;;;;;;;32.25;17.05;;;5.30;1.00;;;;;;7383529;19;20450;-62
2022/03/27 03:31:07;;;;;;;34.97;17.58;;;5.30;1.00;;;;;;7384626;19;20089;-61
2022/03/27 03:33:37;;;;;;;30.80;16.67;;;5.30;1.00;;;;;;7358945;19;20010;-61
2022/03/27 03:36:08;;;;;;;37.30;17.05;;;5.30;1.00;;;;;;7361508;19;20016;-61
2022/03/27 03:38:40;;;;;;;32.88;17.15;;;5.20;1.00;;;;;;7366038;19;20011;-61
2022/03/27 03:41:11;;;;;;;30.83;15.40;;;5.40;1.00;;;;;;7364191;19;20573;-61
2022/03/27 03:43:41;;;;;;;33.35;16.25;;;5.30;1.00;;;;;;7358993;19;20014;-61
2022/03/27 03:46:11;;;;;;;33.88;17.33;;;5.20;1.00;;;;;;7383365;19;20074;-61
2022/03/27 03:48:41;;;;;;;34.20;18.17;;;5.10;1.00;;;;;;7364278;19;20014;-62
2022/03/27 03:51:11;;;;;;;36.42;18.00;;;5.10;1.00;;;;;;7363365;19;20022;-61
2022/03/27 03:53:43;;;;;;;39.03;17.83;;;5.10;1.00;;;;;;7359013;19;20020;-61
2022/03/27 03:56:14;;;;;;;40.03;17.50;;;5.10;1.00;;;;;;7361639;19;20033;-61
2022/03/27 03:58:44;;;;;;;40.42;17.52;;;5.10;1.00;;;;;;7365473;19;20014;-61
2022/03/27 04:01:14;;;;;;;33.28;16.73;;;5.20;1.00;;;;;;7386285;19;20475;-60
2022/03/27 04:03:44;;;;;;;37.25;18.05;;;5.10;1.00;;;;;;7358007;19;20035;-61
2022/03/27 04:06:14;;;;;;;33.00;16.63;;;4.90;1.00;;;;;;7360444;19;20109;-60
2022/03/27 04:08:46;;;;;;;41.40;18.10;;;4.90;1.00;;;;;;7363567;19;20021;-60
2022/03/27 04:11:17;;;;;;;34.72;17.17;;;4.90;1.00;;;;;;7363661;19;20475;-61
2022/03/27 04:13:47;;;;;;;33.78;17.33;;;4.80;1.00;;;;;;7358023;19;20338;-61
2022/03/27 04:16:17;;;;;;;38.33;18.05;;;4.80;1.00;;;;;;7384067;19;20014;-61
2022/03/27 04:18:47;;;;;;;39.75;17.95;;;4.70;1.00;;;;;;7363515;19;20014;-61
2022/03/27 04:21:17;;;;;;;43.35;18.90;;;4.70;1.00;;;;;;7362976;19;20023;-60
2022/03/27 04:23:49;;;;;;;37.10;20.30;;;4.70;1.00;;;;;;7362544;19;20021;-61
2022/03/27 04:26:19;;;;;;;35.63;18.55;;;4.70;1.00;;;;;;7359207;19;20006;-61
2022/03/27 04:28:49;;;;;;;35.75;18.08;;;4.70;1.00;;;;;;7363809;19;20014;-61
2022/03/27 04:31:20;;;;;;;35.20;19.63;;;4.60;1.00;;;;;;7384141;19;20031;-61
2022/03/27 04:33:50;;;;;;;38.50;18.65;;;4.60;1.00;;;;;;7361897;19;20086;-60
2022/03/27 04:36:20;;;;;;;36.78;18.58;;;4.60;1.00;;;;;;7357902;19;20013;-61
2022/03/27 04:38:52;;;;;;;37.50;18.98;;;4.60;1.00;;;;;;7364007;19;20506;-60
2022/03/27 04:41:22;;;;;;;39.33;18.63;;;4.60;1.00;;;;;;7364193;19;20462;-60
2022/03/27 04:43:52;;;;;;;38.03;18.75;;;4.60;1.00;;;;;;7362226;19;20282;-61
2022/03/27 04:46:22;;;;;;;39.50;18.85;;;4.60;1.00;;;;;;7378338;19;20014;-60
2022/03/27 04:48:52;;;;;;;38.45;18.95;;;4.50;1.00;;;;;;7362412;19;20010;-60
2022/03/27 04:51:22;;;;;;;39.50;18.77;;;4.50;1.00;;;;;;7361842;19;20020;-60
2022/03/27 04:53:54;;;;;;;35.22;17.90;;;4.50;1.00;;;;;;7362386;19;20018;-61
2022/03/27 04:56:24;;;;;;;37.10;18.23;;;4.60;1.00;;;;;;7354472;19;20011;-60
2022/03/27 04:58:54;;;;;;;32.65;16.42;;;4.60;1.00;;;;;;7363716;19;20078;-61
2022/03/27 05:01:24;;;;;;;37.00;18.10;;;4.60;1.00;;;;;;7385036;19;20014;-61
2022/03/27 05:03:54;;;;;;;33.17;18.15;;;4.70;1.00;;;;;;7361720;19;20014;-61
2022/03/27 05:06:24;;;;;;;29.50;17.65;;;4.70;1.00;;;;;;7353901;19;20030;-61
2022/03/27 05:08:58;;;;;;;30.45;17.25;;;4.70;1.00;;;;;;7362839;19;20475;-61
2022/03/27 05:11:28;;;;;;;30.48;17.00;;;4.80;1.00;;;;;;7361351;19;20370;-60
2022/03/27 05:13:59;;;;;;;32.10;17.42;;;4.80;1.00;;;;;;7361746;19;20620;-61
2022/03/27 05:16:29;;;;;;;34.53;17.45;;;4.90;1.00;;;;;;7376009;19;20578;-60
2022/03/27 05:18:59;;;;;;;33.85;18.55;;;4.90;1.00;;;;;;7363498;19;20014;-61
2022/03/27 05:21:29;;;;;;;39.65;17.67;;;5.00;1.00;;;;;;7369904;19;20014;-61
2022/03/27 05:24:01;;;;;;;30.42;17.70;;;5.00;1.00;;;;;;7367047;19;20015;-61
2022/03/27 05:26:35;;;;;;;33.20;16.95;;;5.10;1.00;;;;;;7360871;19;20040;-61
2022/03/27 05:29:08;;;;;;;45.22;18.20;;;5.10;1.00;;;;;;7369246;19;20485;-61
2022/03/27 05:31:38;;;;;;;35.42;17.42;;;5.20;1.00;;;;;;7367927;19;20015;-63
2022/03/27 05:34:08;;;;;;;36.08;17.75;;;5.40;1.00;;;;;;7389985;19;20097;-61
2022/03/27 05:36:38;;;;;;;40.38;16.55;;;5.30;1.00;;;;;;7359519;19;20015;-62
2022/03/27 05:39:10;;;;;;;30.88;16.77;;;5.30;1.00;;;;;;7369581;19;20026;-62
2022/03/27 05:41:40;;;;;;;32.28;16.77;;;5.30;1.00;;;;;;7367782;19;20013;-60
2022/03/27 05:44:10;;;;;;;35.22;17.95;;;5.30;1.00;;;;;;7367662;19;20042;-59
2022/03/27 05:46:40;;;;;;;29.83;16.88;;;5.40;1.00;;;;;;7359906;19;20078;-60
2022/03/27 05:49:10;;;;;;;30.17;16.02;;;5.50;1.00;;;;;;7390696;19;20017;-61
2022/03/27 05:51:40;;;;;;;34.75;18.17;;;5.50;1.00;;;;;;7367113;19;20762;-61
2022/03/27 05:54:12;;;;;;;33.55;16.60;;;5.50;1.00;;;;;;7367438;19;20034;-61
2022/03/27 05:56:42;;;;;;;28.88;16.42;;;5.60;1.00;;;;;;7360054;19;20439;-60
2022/03/27 05:59:12;;;;;;;34.72;17.15;;;5.50;1.00;;;;;;7367277;19;20015;-60
2022/03/27 06:01:42;;;;;;;36.78;18.00;;;5.50;1.00;;;;;;7368590;19;20017;-61
2022/03/27 06:04:12;;;;;;;35.88;17.40;;;5.50;1.00;;;;;;7389003;19;20078;-61
2022/03/27 06:06:42;;;;;;;30.40;16.98;;;5.60;1.00;;;;;;7359542;19;20090;-61
2022/03/27 06:09:15;;;;;;;34.03;17.83;;;5.70;1.00;;;;;;7367988;19;20012;-61
2022/03/27 06:11:44;;;;;;;31.38;16.58;;;5.90;1.00;;;;;;7367665;19;20010;-60
2022/03/27 06:14:14;;;;;;;33.55;17.50;;;6.00;1.00;;;;;;7367057;19;20082;-60
2022/03/27 06:16:44;;;;;;;40.13;18.20;;;6.10;1.00;;;;;;7360298;19;20013;-61
2022/03/27 06:19:14;;;;;;;38.47;16.88;;;6.30;1.00;;;;;;7389674;19;20018;-61
2022/03/27 06:21:45;;;;;;;37.75;17.33;;;6.40;1.00;;;;;;7367811;19;20044;-61
2022/03/27 06:24:18;;;;;;;31.60;16.25;;;6.60;1.00;;;;;;7366697;19;20014;-62
2022/03/27 06:26:48;;;;;;;32.67;16.33;;;6.70;1.00;;;;;;7358051;19;20527;-61
2022/03/27 06:29:20;;;;;;;33.88;17.17;;;6.80;1.00;;;;;;7367309;19;20014;-61
2022/03/27 06:31:51;;;;;;;29.17;14.95;;;7.00;1.00;;;;;;7366361;19;20029;-60
2022/03/27 06:34:21;;;;;;;28.52;14.90;;;7.10;1.00;;;;;;7386591;19;20038;-60
2022/03/27 06:36:51;;;;;;;29.60;14.88;;;7.20;1.00;;;;;;7358158;19;20006;-61
2022/03/27 06:39:24;;;;;;;38.15;16.70;;;7.30;1.00;;;;;;7365408;19;20014;-61
2022/03/27 06:41:53;;;;;;;30.73;15.88;;;7.40;1.00;;;;;;7366308;19;20014;-61
2022/03/27 06:44:23;;;;;;;32.08;16.88;;;7.50;1.00;;;;;;7366011;19;20010;-61
2022/03/27 06:46:55;;;;;;;32.38;16.05;;;7.50;1.00;;;;;;7357848;19;20049;-60
2022/03/27 06:49:29;;;;;;;29.35;15.75;;;7.70;1.00;;;;;;7388722;19;20011;-61
2022/03/27 06:51:59;;;;;;;25.02;14.38;;;7.90;1.00;;;;;;7366169;19;20007;-61
2022/03/27 06:54:32;;;;;;;30.02;15.52;;;7.90;1.00;;;;;;7363342;19;20020;-60
2022/03/27 06:57:02;;;;;;;31.40;16.88;;;8.20;1.00;;;;;;7356452;19;20077;-61
2022/03/27 07:03:01;;;;;;;34.08;17.15;;;8.20;1.00;;;;;;7366409;19;20010;-61
2022/03/27 07:05:07;;;;;;;29.55;16.35;;;8.30;1.00;;;;;;7359412;19;20040;-61
2022/03/27 07:07:37;;;;;;;32.38;16.23;;;8.30;1.00;;;;;;7372580;19;20097;-61
2022/03/27 07:10:10;;;;;;;30.35;16.08;;;8.20;1.00;;;;;;7387199;19;20176;-61
2022/03/27 07:12:42;;;;;;;33.28;17.73;;;8.20;1.00;;;;;;7364170;19;20018;-61
2022/03/27 07:15:13;;;;;;;33.53;15.77;;;8.30;1.00;;;;;;7361516;19;20075;-61
2022/03/27 07:17:47;;;;;;;29.33;16.77;;;8.30;1.00;;;;;;7359590;19;20010;-61
2022/03/27 07:20:21;;;;;;;35.63;16.55;;;8.40;1.00;;;;;;7365759;19;20006;-61
2022/03/27 07:22:51;;;;;;;35.37;16.57;;;8.60;1.00;;;;;;7364629;19;20018;-61
2022/03/27 07:25:24;;;;;;;38.53;16.98;;;8.60;1.00;;;;;;7380972;19;20113;-62
2022/03/27 07:27:54;;;;;;;35.15;16.45;;;8.40;1.00;;;;;;7360266;19;20018;-61
2022/03/27 07:30:24;;;;;;;30.90;16.10;;;8.70;1.00;;;;;;7365326;19;20017;-61
2022/03/27 07:32:54;;;;;;;33.05;16.65;;;8.70;1.00;;;;;;7365764;19;20010;-61
2022/03/27 07:35:26;;;;;;;29.05;15.48;;;8.80;1.00;;;;;;7357326;19;20007;-61
2022/03/27 07:37:56;;;;;;;29.65;16.38;;;9.00;1.00;;;;;;7359356;19;20010;-61
2022/03/27 07:40:29;;;;;;;30.10;16.30;;;9.00;1.00;;;;;;7385962;19;20098;-62
2022/03/27 07:42:59;;;;;;;31.85;15.88;;;9.30;1.00;;;;;;7363015;19;20136;-61
2022/03/27 07:45:31;;;;;;;28.20;15.23;;;9.40;1.00;;;;;;7360054;19;20056;-61
2022/03/27 07:48:01;;;;;;;30.58;15.18;;;9.50;1.00;;;;;;7359244;19;20106;-61
2022/03/27 07:50:33;;;;;;;28.25;14.95;;;9.60;1.00;;;;;;7366324;19;20081;-61
2022/03/27 07:53:04;;;;;;;28.52;15.65;;;9.80;1.00;;;;;;7363634;19;20054;-61
2022/03/27 07:55:37;;;;;;;29.75;15.70;;;9.90;1.00;;;;;;7379901;19;20025;-62
2022/03/27 07:58:07;;;;;;;26.45;15.05;;;9.90;1.00;;;;;;7359915;19;20085;-61
2022/03/27 08:00:37;;;;;;;29.17;14.98;;;10.10;1.00;;;;;;7363594;19;20007;-61
2022/03/27 08:03:08;;;;;;;27.33;15.27;;;10.10;1.00;;;;;;7364260;19;20374;-61
2022/03/27 08:05:38;;;;;;;33.70;14.70;;;10.30;1.00;;;;;;7359298;19;20010;-62
2022/03/27 08:08:09;;;;;;;33.90;15.35;;;10.40;1.00;;;;;;7358082;19;20022;-61
2022/03/27 08:10:41;;;;;;;27.70;14.77;;;10.50;1.00;;;;;;7363993;19;20013;-61
2022/03/27 08:13:11;;;;;;;29.40;14.52;;;10.60;1.00;;;;;;7384074;19;20089;-61
2022/03/27 08:15:41;;;;;;;26.20;13.88;;;10.50;1.00;;;;;;7358964;19;20010;-61
2022/03/27 08:18:14;;;;;;;26.58;14.60;;;10.50;1.00;;;;;;7359141;19;20037;-61
2022/03/27 08:20:44;;;;;;;26.17;14.05;;;10.80;1.00;;;;;;7360857;19;20089;-62
2022/03/27 08:23:14;;;;;;;25.10;14.30;;;11.00;1.00;;;;;;7362535;19;20014;-61
2022/03/27 08:28:29;;;;;;;27.67;14.55;;;11.10;1.00;;;;;;7383843;19;20051;-62
2022/03/27 08:30:59;;;;;;;25.27;14.85;;;11.30;1.00;;;;;;7362175;19;20555;-61
2022/03/27 08:33:28;;;;;;;23.67;13.38;;;11.40;1.00;;;;;;7361545;19;20621;-62
2022/03/27 08:35:59;;;;;;;31.60;14.27;;;11.50;1.00;;;;;;7354658;19;20014;-62
2022/03/27 08:38:29;;;;;;;21.70;13.48;;;11.60;1.00;;;;;;7362717;19;20007;-61
2022/03/27 08:41:03;;;;;;;25.10;14.02;;;11.60;1.00;;;;;;7363195;19;20032;-61
2022/03/27 08:43:35;;;;;;;25.08;12.98;;;11.60;1.00;;;;;;7384515;19;20014;-62
2022/03/27 08:46:05;;;;;;;24.08;13.38;;;11.80;1.00;;;;;;7354071;19;20006;-62
2022/03/27 08:48:39;;;;;;;23.45;13.00;;;11.90;1.00;;;;;;7360907;19;20014;-61
2022/03/27 08:51:11;;;;;;;23.88;13.55;;;12.10;1.00;;;;;;7361628;19;20007;-60
2022/03/27 08:53:49;;;;;;;23.90;13.18;;;12.20;1.00;;;;;;7363836;19;20086;-61
2022/03/27 08:56:22;;;;;;;19.27;11.85;;;12.40;1.00;;;;;;7361887;19;20039;-61
2022/03/27 08:58:53;;;;;;;25.20;13.70;;;12.60;1.00;;;;;;7369434;19;20021;-61
2022/03/27 09:01:23;;;;;;;27.95;12.13;;;12.60;1.00;;;;;;7390851;19;20035;-63
2022/03/27 09:03:53;;;;;;;23.00;12.48;;;12.60;1.00;;;;;;7368493;19;20025;-60
2022/03/27 09:06:25;;;;;;;29.85;13.57;;;12.70;1.00;;;;;;7361523;19;20015;-61
2022/03/27 09:08:55;;;;;;;20.48;13.20;;;12.70;1.00;;;;;;7368965;19;20006;-61
2022/03/27 09:11:32;;;;;;;17.00;11.13;;;13.10;1.00;;;;;;7369285;19;20017;-61
2022/03/27 09:14:03;;;;;;;19.48;11.63;;;13.00;1.00;;;;;;7367126;19;20105;-62
2022/03/27 09:16:53;;;;;;;22.30;11.07;;;13.10;1.00;;;;;;7382252;19;20530;-61
2022/03/27 09:19:34;;;;;;;20.33;11.77;;;13.30;1.00;;;;;;7368771;19;20006;-62
2022/03/27 09:22:14;;;;;;;21.45;10.27;;;13.60;1.00;;;;;;7369529;19;20007;-61
2022/03/27 09:24:48;;;;;;;18.10;11.25;;;13.60;1.00;;;;;;7364755;19;20007;-61
2022/03/27 09:27:30;;;;;;;23.50;11.77;;;13.70;1.00;;;;;;7355350;19;20592;-63
2022/03/27 09:30:06;;;;;;;22.30;11.63;;;13.60;1.00;;;;;;7370067;19;20010;-63
2022/03/27 09:32:45;;;;;;;22.10;11.65;;;13.80;1.00;;;;;;7371185;19;20447;-62
2022/03/27 09:35:17;;;;;;;21.33;11.02;;;13.90;1.00;;;;;;7366001;19;20010;-63
2022/03/27 09:37:48;;;;;;;19.45;11.45;;;14.00;1.00;;;;;;7363096;19;20016;-62
2022/03/27 09:40:20;;;;;;;22.50;11.88;;;14.10;1.00;;;;;;7390825;19;20006;-65
2022/03/27 09:43:11;;;;;;;21.60;12.55;;;14.20;1.00;;;;;;7370894;19;20520;-63
2022/03/27 09:45:41;;;;;;;25.58;12.98;;;14.20;1.00;;;;;;7365422;19;20019;-62
2022/03/27 09:48:12;;;;;;;24.70;12.85;;;14.30;1.00;;;;;;7366000;19;20010;-63
2022/03/27 09:50:43;;;;;;;22.25;12.68;;;14.40;1.00;;;;;;7369991;19;20086;-63
2022/03/27 09:53:25;;;;;;;23.70;12.98;;;14.50;1.00;;;;;;7370278;19;20038;-61
2022/03/27 09:56:11;;;;;;;22.58;12.63;;;14.50;1.00;;;;;;7359319;19;20015;-62
2022/03/27 09:58:45;;;;;;;21.88;12.68;;;14.50;1.00;;;;;;7370279;19;20014;-63
2022/03/27 10:01:17;;;;;;;20.20;12.13;;;14.50;1.00;;;;;;7390842;19;20021;-63
2022/03/27 10:04:02;;;;;;;25.13;12.68;;;14.60;1.00;;;;;;7368688;19;20060;-64
2022/03/27 10:06:33;;;;;;;;;;;14.70;1.00;;;;;;7360005;19;20399;-63
2022/03/27 10:09:05;;;;;;;24.65;12.52;;;14.90;1.00;;;;;;7369833;19;19986;-63
2022/03/27 10:11:35;;;;;;;24.35;12.55;;;15.20;1.00;;;;;;7370730;19;20010;-63
2022/03/27 10:14:09;;;;;;;21.73;12.98;;;15.20;1.00;;;;;;7369065;19;20006;-63
2022/03/27 10:16:46;;;;;;;21.75;12.20;;;14.90;1.00;;;;;;7361284;19;20041;-63
2022/03/27 10:19:23;;;;;;;20.98;13.23;;;15.20;1.00;;;;;;7389638;19;20021;-63
2022/03/27 10:21:54;;;;;;;23.63;13.00;;;15.40;1.00;;;;;;7368700;19;20443;-63
2022/03/27 10:24:30;;;;;;;24.35;12.80;;;15.60;1.00;;;;;;7365347;19;20006;-63
2022/03/27 10:27:02;;;;;;;32.47;13.55;;;15.60;1.00;;;;;;7359915;19;20099;-63
2022/03/27 10:29:37;;;;;;;19.98;12.38;;;15.60;1.00;;;;;;7367519;19;20006;-62
2022/03/27 10:32:11;;;;;;;;;;;15.80;1.00;;;;;;7369915;19;20015;-63
2022/03/27 10:35:01;;;;;;;29.52;13.75;;;15.90;1.00;;;;;;7363961;19;19923;-65
2022/03/27 10:37:45;;;;;;;24.58;12.57;;;16.00;1.00;;;;;;7377958;19;20018;-65
2022/03/27 10:40:23;;;;;;;22.45;13.38;;;16.10;1.00;;;;;;7390054;19;20020;-63
2022/03/27 10:43:14;;;;;;;31.10;13.27;;;16.00;1.00;;;;;;7366363;19;20486;-62
2022/03/27 10:45:46;;;;;;;22.88;13.48;;;16.10;1.00;;;;;;7361955;19;20102;-64
2022/03/27 10:48:20;;;;;;;22.42;13.40;;;16.40;1.00;;;;;;7365157;19;20471;-63
2022/03/27 10:50:53;;;;;;;21.30;12.75;;;16.30;1.00;;;;;;7367390;19;20024;-63
2022/03/27 10:53:25;;;;;;;27.83;13.85;;;16.00;1.00;;;;;;7365943;19;20010;-65
2022/03/27 10:55:57;;;;;;;24.10;13.00;;;16.40;1.00;;;;;;7365935;19;20022;-64
2022/03/27 10:58:39;;;;;;;22.52;13.43;;;16.70;1.00;;;;;;7387718;19;20086;-66
2022/03/27 11:01:34;;;;;;;22.30;12.40;;;16.60;1.00;;;;;;7368185;19;20033;-64
2022/03/27 11:04:11;;;;;;;23.77;13.07;;;16.80;1.00;;;;;;7363380;19;20022;-63
2022/03/27 11:06:43;;;;;;;25.50;13.88;;;16.70;1.00;;;;;;7361434;19;20007;-63
2022/03/27 11:09:24;;;;;;;22.58;12.75;;;16.80;1.00;;;;;;7367500;19;20006;-64
2022/03/27 11:11:58;;;;;;;21.20;12.52;;;16.80;1.00;;;;;;7368755;19;20025;-64
2022/03/27 11:14:57;;;;;;;27.23;14.60;;;17.00;1.00;;;;;;7365190;19;21329;-63
2022/03/27 11:17:38;;;;;;;24.42;12.10;;;16.90;1.00;;;;;;7358318;19;20011;-63
2022/03/27 11:20:11;;;;;;;25.60;14.10;;;17.40;1.00;;;;;;7364777;19;20113;-63
2022/03/27 11:22:51;;;;;;;25.17;13.52;;;17.40;1.00;;;;;;7367648;19;20009;-62
2022/03/27 11:25:29;;;;;;;28.55;13.50;;;17.30;1.00;;;;;;7386226;19;20007;-63
2022/03/27 11:28:07;;;;;;;26.17;12.73;;;17.60;1.00;;;;;;7363434;19;20354;-63
2022/03/27 11:30:39;;;;;;;21.55;12.32;;;17.80;1.00;;;;;;7366080;19;20470;-63
2022/03/27 11:33:30;;;;;;;26.50;13.25;;;17.80;1.00;;;;;;7366401;19;20018;-63
2022/03/27 11:36:24;;;;;;;24.55;13.07;;;18.00;1.00;;;;;;7360263;19;20006;-63
2022/03/27 11:39:07;;;;;;;24.00;12.82;;;17.90;1.00;;;;;;7366728;19;20018;-62
2022/03/27 11:41:42;;;;;;;24.90;13.20;;;17.90;1.00;;;;;;7368068;19;20010;-63
2022/03/27 11:45:06;;;;;;;25.52;13.55;;;17.90;1.00;;;;;;7365447;19;20010;-63
2022/03/27 11:47:20;;;;;;;28.52;14.48;;;18.00;1.00;;;;;;7359004;19;20015;-64
2022/03/27 11:49:54;;;;;;;29.63;17.05;;;18.20;1.00;;;;;;7366326;19;20018;-63
2022/03/27 11:52:25;;;;;;;20.17;11.32;;;18.20;1.00;;;;;;7385852;19;20010;-64
2022/03/27 11:55:06;;;;;;;20.33;11.43;;;18.10;1.00;;;;;;7364839;19;20055;-63
2022/03/27 11:57:47;;;;;;;18.13;11.20;;;18.00;1.00;;;;;;7357902;19;20017;-64
2022/03/27 12:00:32;;;;;;;21.13;11.27;;;18.20;1.00;;;;;;7365953;19;20007;-63
2022/03/27 12:03:04;;;;;;;22.73;11.32;;;18.10;1.00;;;;;;7366560;19;20065;-63
2022/03/27 12:05:40;;;;;;;27.67;11.32;;;18.50;1.00;;;;;;7360521;19;20011;-61
2022/03/27 12:08:12;;;;;;;18.35;10.88;;;18.90;1.00;;;;;;7361217;19;20011;-64
2022/03/27 12:10:46;;;;;;;20.50;11.02;;;18.80;1.00;;;;;;7366349;19;20015;-65
2022/03/27 12:13:16;;;;;;;26.90;11.13;;;18.40;1.00;;;;;;7385947;19;20014;-63
2022/03/27 12:15:49;;;;;;;26.17;10.02;;;18.50;1.00;;;;;;7357295;19;20081;-64
2022/03/27 12:18:32;;;;;;;16.13;9.13;;;18.60;1.00;;;;;;7357408;19;20014;-63
2022/03/27 12:21:07;;;;;;;17.45;8.75;;;18.70;1.00;;;;;;7362195;19;20046;-64
2022/03/27 12:23:38;;;;;;;19.95;9.25;;;18.50;1.00;;;;;;7365528;19;20060;-62
2022/03/27 12:31:35;;;;;;;14.68;8.73;;;18.80;1.00;;;;;;7387666;19;20078;-63
2022/03/27 12:34:06;;;;;;;16.50;9.18;;;18.80;1.00;;;;;;7364052;19;20017;-64
2022/03/27 12:37:09;;;;;;;15.10;9.02;;;18.80;1.00;;;;;;7354505;19;20418;-62
2022/03/27 12:39:40;;;;;;;23.60;9.38;;;18.80;1.00;;;;;;7361562;19;20010;-63
2022/03/27 12:42:32;;;;;;;21.92;8.43;;;18.70;1.00;;;;;;7362547;19;20015;-62
2022/03/27 12:45:05;;;;;;;15.95;8.63;;;19.00;1.00;;;;;;7363848;19;20082;-63
2022/03/27 12:47:37;;;;;;;16.67;7.72;;;19.00;1.00;;;;;;7355972;19;20037;-65
2022/03/27 12:50:09;;;;;;;15.30;7.63;;;19.00;1.00;;;;;;7362891;19;20122;-64
2022/03/27 12:52:54;;;;;;;14.13;8.45;;;18.80;1.00;;;;;;7365279;19;20021;-63
2022/03/27 12:55:26;;;;;;;19.70;8.18;;;18.80;1.00;;;;;;7382876;19;20086;-63
2022/03/27 12:58:01;;;;;;;16.02;7.82;;;19.00;1.00;;;;;;7355792;19;20725;-64
2022/03/27 13:00:33;;;;;;;16.80;7.68;;;19.20;1.00;;;;;;7360420;19;20390;-63
2022/03/27 13:03:14;;;;;;;12.82;7.50;;;19.10;1.00;;;;;;7364205;19;20013;-62
2022/03/27 13:05:46;;;;;;;18.50;7.53;;;19.30;1.00;;;;;;7357719;19;20050;-62
2022/03/27 13:08:27;;;;;;;17.70;7.97;;;19.50;1.00;;;;;;7359587;19;20384;-64
2022/03/27 13:11:00;;;;;;;18.00;7.95;;;19.40;1.00;;;;;;7364299;19;20472;-64
2022/03/27 13:13:38;;;;;;;14.75;7.88;;;19.40;1.00;;;;;;7382644;19;20044;-63
2022/03/27 13:16:23;;;;;;;16.35;7.55;;;19.50;1.00;;;;;;7354424;19;20003;-65
2022/03/27 13:19:02;;;;;;;16.55;8.00;;;19.50;1.00;;;;;;7362406;19;20017;-62
2022/03/27 13:21:34;;;;;;;12.32;7.65;;;19.50;1.00;;;;;;7363565;19;20099;-63
2022/03/27 13:24:09;;;;;;;13.20;7.47;;;19.50;1.00;;;;;;7362787;19;20074;-62
2022/03/27 13:26:40;;;;;;;15.73;8.02;;;19.30;1.00;;;;;;7356224;19;20013;-63